Time;durP1;ratioP1;P1;durP2;ratioP2;P2;SDS_P1;SDS_P2;PMS_P1;PMS_P2;Temp;Humidity;BMP_temperature;BMP_pressure;BME280_temperature;BME280_humidity;BME280_pressure;Samples;Min_cycle;Max_cycle;Signal;HPM_P1;HPM_P2
2022/10/18 00:01:09;;;;;;;26.52;15.88;;;13.60;99.90;;;;;;5002701;28;20045;-82
2022/10/18 00:03:35;;;;;;;29.50;15.68;;;13.60;99.90;;;;;;5007297;28;20454;-84
2022/10/18 00:06:02;;;;;;;37.30;18.70;;;13.70;99.90;;;;;;4992837;28;20568;-85
2022/10/18 00:08:27;;;;;;;35.92;18.40;;;13.60;99.90;;;;;;4996741;28;20373;-83
2022/10/18 00:10:53;;;;;;;42.80;21.08;;;13.60;99.90;;;;;;5008922;28;20036;-84
2022/10/18 00:13:20;;;;;;;27.42;16.20;;;13.60;99.90;;;;;;5018344;28;20033;-85
2022/10/18 00:15:54;;;;;;;30.70;17.15;;;13.60;99.90;;;;;;5034778;28;20101;-86
2022/10/18 00:18:20;;;;;;;26.88;16.58;;;13.60;99.90;;;;;;5016917;28;20068;-82
2022/10/18 00:20:59;;;;;;;54.42;25.25;;;13.60;99.90;;;;;;4984795;28;21041;-84
2022/10/18 00:23:25;;;;;;;42.88;21.33;;;13.60;99.90;;;;;;5032852;28;20049;-86
2022/10/18 00:25:59;;;;;;;39.88;19.65;;;13.60;99.90;;;;;;5005528;28;20068;-86
2022/10/18 00:28:25;;;;;;;36.75;21.50;;;13.60;99.90;;;;;;5024251;28;20033;-85
2022/10/18 00:30:51;;;;;;;57.80;24.98;;;13.60;99.90;;;;;;5005995;28;20076;-82
2022/10/18 00:33:16;;;;;;;35.20;20.83;;;13.60;99.90;;;;;;5006664;28;20234;-85
2022/10/18 00:35:42;;;;;;;102.55;24.70;;;13.60;99.90;;;;;;5008522;28;20609;-85
2022/10/18 00:38:08;;;;;;;72.95;25.52;;;13.60;99.90;;;;;;4985936;28;20049;-85
2022/10/18 00:40:33;;;;;;;49.17;21.58;;;13.60;99.90;;;;;;5038953;28;20051;-86
2022/10/18 00:42:59;;;;;;;51.17;21.83;;;13.60;99.90;;;;;;5039449;28;20132;-89
2022/10/18 00:45:25;;;;;;;96.15;26.55;;;13.60;99.90;;;;;;5022250;28;20035;-87
2022/10/18 00:47:57;;;;;;;40.78;20.05;;;13.60;99.90;;;;;;5022198;28;20044;-86
2022/10/18 00:50:25;;;;;;;30.88;17.23;;;13.60;99.90;;;;;;5044140;28;20245;-85
2022/10/18 00:52:57;;;;;;;53.22;20.33;;;13.60;99.90;;;;;;5024112;28;20060;-80
2022/10/18 00:55:24;;;;;;;57.45;22.08;;;13.60;99.90;;;;;;5021762;28;20052;-85
2022/10/18 00:57:50;;;;;;;265.63;36.45;;;13.60;99.90;;;;;;5032817;28;20037;-87
2022/10/18 01:00:17;;;;;;;65.20;21.13;;;13.60;99.90;;;;;;5011967;28;20314;-84
2022/10/18 01:02:44;;;;;;;96.75;21.75;;;13.60;99.90;;;;;;5013323;28;20115;-84
2022/10/18 01:05:15;;;;;;;75.70;23.10;;;13.60;99.90;;;;;;5025629;28;20128;-85
2022/10/18 01:07:49;;;;;;;107.43;25.10;;;13.60;99.90;;;;;;5025172;28;20080;-85
2022/10/18 01:10:53;;;;;;;66.57;18.38;;;13.60;99.90;;;;;;5010402;28;20041;-84
2022/10/18 01:13:40;;;;;;;98.32;23.40;;;13.60;99.90;;;;;;5005381;28;20037;-84
2022/10/18 01:16:26;;;;;;;68.40;19.00;;;13.60;99.90;;;;;;5007925;28;20067;-87
2022/10/18 01:19:40;;;;;;;63.80;20.33;;;13.60;99.90;;;;;;5022018;28;20033;-83
2022/10/18 01:22:22;;;;;;;152.10;25.95;;;13.60;99.90;;;;;;5004007;28;20158;-83
2022/10/18 01:25:04;;;;;;;100.38;20.65;;;13.60;99.90;;;;;;5006064;28;20080;-84
2022/10/18 01:27:52;;;;;;;89.70;20.33;;;13.60;99.90;;;;;;5020899;28;20048;-84
2022/10/18 01:30:39;;;;;;;71.60;20.63;;;13.60;99.90;;;;;;5010955;28;20133;-85
2022/10/18 01:33:20;;;;;;;32.72;15.95;;;13.60;99.90;;;;;;5022763;28;20036;-87
2022/10/18 01:35:56;;;;;;;87.68;19.05;;;13.50;99.90;;;;;;5022766;28;20048;-87
2022/10/18 01:38:24;;;;;;;89.82;18.42;;;13.60;99.90;;;;;;5020550;28;20515;-86
2022/10/18 01:40:51;;;;;;;74.47;21.80;;;13.50;99.90;;;;;;4992971;28;20056;-86
2022/10/18 01:43:20;;;;;;;73.22;18.38;;;13.50;99.90;;;;;;5009649;28;20060;-86
2022/10/18 01:45:47;;;;;;;41.35;16.55;;;13.50;99.90;;;;;;5010696;28;21127;-84
2022/10/18 01:48:13;;;;;;;35.03;16.17;;;13.50;99.90;;;;;;5038927;28;20041;-84
2022/10/18 01:50:39;;;;;;;31.95;14.23;;;13.50;99.90;;;;;;5014790;28;21296;-85
2022/10/18 01:53:04;;;;;;;89.35;21.77;;;13.50;99.90;;;;;;4992521;28;20546;-84
2022/10/18 01:55:39;;;;;;;64.82;18.10;;;13.50;99.90;;;;;;5025449;28;20209;-85
2022/10/18 01:58:14;;;;;;;36.45;15.60;;;13.50;99.90;;;;;;5027103;28;20076;-85
2022/10/18 02:00:43;;;;;;;22.42;13.25;;;13.50;99.90;;;;;;5022659;28;20056;-85
2022/10/18 02:03:26;;;;;;;45.80;19.05;;;13.50;99.90;;;;;;4992580;28;20067;-84
2022/10/18 02:06:07;;;;;;;41.58;16.85;;;13.40;99.90;;;;;;5006334;28;20056;-86
2022/10/18 02:08:41;;;;;;;20.90;15.10;;;13.40;99.90;;;;;;5018665;28;20046;-85
2022/10/18 02:11:16;;;;;;;49.60;19.73;;;13.40;99.90;;;;;;5027347;28;20590;-84
2022/10/18 02:13:56;;;;;;;33.03;17.67;;;13.40;99.90;;;;;;5005933;28;20576;-84
2022/10/18 02:16:27;;;;;;;34.42;14.75;;;13.30;99.90;;;;;;5028142;28;20028;-83
2022/10/18 02:19:09;;;;;;;72.47;20.17;;;13.30;99.90;;;;;;5029984;28;20512;-84
2022/10/18 02:21:39;;;;;;;27.42;15.15;;;13.30;99.90;;;;;;5030365;28;20051;-84
2022/10/18 02:24:07;;;;;;;40.05;17.38;;;13.30;99.90;;;;;;5025732;28;20052;-86
2022/10/18 02:26:33;;;;;;;34.80;16.38;;;13.30;99.90;;;;;;4999585;28;20049;-85
2022/10/18 02:28:58;;;;;;;30.23;14.85;;;13.30;99.90;;;;;;4993322;28;20048;-85
2022/10/18 02:31:46;;;;;;;69.50;18.85;;;13.30;99.90;;;;;;5016830;23;20060;-64
2022/10/18 02:34:28;;;;;;;47.92;14.55;;;13.20;99.90;;;;;;5018911;28;20076;-63
2022/10/18 02:36:58;;;;;;;40.78;15.93;;;13.20;99.90;;;;;;5007027;28;20108;-62
2022/10/18 02:39:36;;;;;;;25.50;15.38;;;13.20;99.90;;;;;;5026376;28;20131;-61
2022/10/18 02:42:06;;;;;;;80.97;17.42;;;13.10;99.90;;;;;;5003765;28;20049;-64
2022/10/18 02:44:33;;;;;;;104.45;17.85;;;13.10;99.90;;;;;;5036259;28;20045;-61
2022/10/18 02:46:59;;;;;;;36.42;15.75;;;13.10;99.90;;;;;;5038332;28;20044;-60
2022/10/18 02:49:25;;;;;;;40.00;12.27;;;13.10;99.90;;;;;;5032996;28;20057;-62
2022/10/18 02:51:51;;;;;;;83.05;16.77;;;13.10;99.90;;;;;;5026629;28;20532;-61
2022/10/18 02:54:16;;;;;;;391.60;39.90;;;13.00;99.90;;;;;;5018445;28;20034;-62
2022/10/18 02:56:42;;;;;;;111.55;19.05;;;13.00;99.90;;;;;;5019512;28;20049;-64
2022/10/18 02:59:08;;;;;;;78.45;17.60;;;13.00;99.90;;;;;;5005437;28;20044;-64
2022/10/18 03:01:34;;;;;;;61.03;16.77;;;13.00;99.90;;;;;;4992871;28;20049;-61
2022/10/18 03:04:01;;;;;;;53.10;16.02;;;13.00;99.90;;;;;;5018329;28;20760;-63
2022/10/18 03:06:27;;;;;;;61.55;16.05;;;12.90;99.90;;;;;;5016890;28;20391;-64
2022/10/18 03:08:53;;;;;;;63.92;15.48;;;12.90;99.90;;;;;;5021196;28;20049;-64
2022/10/18 03:11:19;;;;;;;65.78;16.65;;;12.90;99.90;;;;;;5020223;28;20053;-61
2022/10/18 03:13:45;;;;;;;225.68;26.25;;;12.90;99.90;;;;;;5009914;28;20052;-64
2022/10/18 03:16:11;;;;;;;104.68;17.88;;;12.90;99.90;;;;;;5024659;28;20407;-64
2022/10/18 03:18:37;;;;;;;78.93;13.93;;;12.80;99.90;;;;;;5023103;28;20079;-61
2022/10/18 03:21:04;;;;;;;76.47;13.10;;;12.80;99.90;;;;;;5001080;28;20474;-64
2022/10/18 03:23:30;;;;;;;94.32;14.98;;;12.80;99.90;;;;;;5026900;28;20510;-64
2022/10/18 03:25:55;;;;;;;127.07;15.38;;;12.70;99.90;;;;;;5021125;28;20743;-61
2022/10/18 03:28:21;;;;;;;54.38;11.75;;;12.70;99.90;;;;;;5026501;28;20491;-62
2022/10/18 03:30:47;;;;;;;90.22;13.98;;;12.70;99.90;;;;;;5019707;28;20063;-61
2022/10/18 03:33:12;;;;;;;80.35;14.73;;;12.60;99.90;;;;;;4996236;28;20041;-61
2022/10/18 03:35:38;;;;;;;63.13;14.02;;;12.60;99.90;;;;;;4996055;28;20120;-63
2022/10/18 03:38:04;;;;;;;75.68;13.52;;;12.60;99.90;;;;;;5003869;28;20076;-64
2022/10/18 03:40:30;;;;;;;30.90;10.75;;;12.60;99.90;;;;;;5024187;28;20332;-63
2022/10/18 03:42:55;;;;;;;61.55;14.10;;;12.50;99.90;;;;;;5030458;28;20175;-62
2022/10/18 03:45:21;;;;;;;52.20;12.90;;;12.50;99.90;;;;;;5014093;28;20094;-64
2022/10/18 03:47:47;;;;;;;37.92;12.55;;;12.40;99.90;;;;;;5034154;28;20054;-61
2022/10/18 03:50:12;;;;;;;51.30;12.55;;;12.40;99.90;;;;;;5022735;28;20041;-64
2022/10/18 03:52:38;;;;;;;55.42;12.70;;;12.30;99.90;;;;;;5022534;28;20041;-64
2022/10/18 03:55:04;;;;;;;28.27;9.88;;;12.30;99.90;;;;;;5010345;28;20049;-63
2022/10/18 03:57:30;;;;;;;77.45;13.48;;;12.30;99.90;;;;;;5022420;28;20131;-64
2022/10/18 03:59:55;;;;;;;52.42;13.05;;;12.20;99.90;;;;;;5028995;28;20053;-61
2022/10/18 04:02:21;;;;;;;57.75;12.18;;;12.30;99.90;;;;;;5031942;28;20076;-63
2022/10/18 04:04:47;;;;;;;25.60;10.27;;;12.30;99.90;;;;;;5020126;28;20503;-63
2022/10/18 04:07:12;;;;;;;58.22;11.77;;;12.20;99.90;;;;;;5026825;28;20045;-66
2022/10/18 04:09:38;;;;;;;41.05;10.73;;;12.20;99.90;;;;;;5019158;28;20093;-65
2022/10/18 04:12:04;;;;;;;47.63;9.75;;;12.20;99.90;;;;;;5023184;28;20033;-65
2022/10/18 04:14:30;;;;;;;12.90;7.70;;;12.10;99.90;;;;;;5026722;28;20257;-63
2022/10/18 04:16:55;;;;;;;31.90;8.93;;;12.10;99.90;;;;;;5045261;28;20033;-64
2022/10/18 04:19:21;;;;;;;26.52;9.60;;;12.10;99.90;;;;;;5035774;28;20071;-62
2022/10/18 04:21:47;;;;;;;60.75;11.88;;;12.10;99.90;;;;;;5032808;28;20563;-61
2022/10/18 04:24:15;;;;;;;36.72;9.02;;;12.10;99.90;;;;;;5020274;28;20068;-61
2022/10/18 04:26:40;;;;;;;43.92;10.27;;;12.00;99.90;;;;;;5012817;28;20599;-64
2022/10/18 04:29:06;;;;;;;44.17;9.55;;;12.00;99.90;;;;;;5027694;28;20048;-63
2022/10/18 04:31:32;;;;;;;60.88;11.68;;;11.90;99.90;;;;;;5008206;28;20041;-63
2022/10/18 04:33:57;;;;;;;28.38;8.68;;;12.00;99.90;;;;;;5007367;28;21413;-64
2022/10/18 04:36:23;;;;;;;17.10;7.90;;;11.90;99.90;;;;;;5024333;28;20077;-61
2022/10/18 04:38:49;;;;;;;26.95;8.27;;;11.90;99.90;;;;;;5025022;28;20068;-63
2022/10/18 04:41:14;;;;;;;14.48;9.63;;;11.80;99.90;;;;;;4986177;28;20048;-63
2022/10/18 04:43:40;;;;;;;10.10;7.18;;;11.80;99.90;;;;;;5004218;28;20052;-63
2022/10/18 04:46:06;;;;;;;9.15;7.20;;;11.80;99.90;;;;;;5032406;28;20442;-61
2022/10/18 04:48:31;;;;;;;9.73;8.35;;;11.80;99.90;;;;;;5024440;28;20532;-63
2022/10/18 04:50:57;;;;;;;45.42;13.13;;;11.80;99.90;;;;;;5014119;28;20045;-62
2022/10/18 04:53:23;;;;;;;32.28;12.10;;;11.70;99.90;;;;;;4999393;28;20032;-61
2022/10/18 04:55:49;;;;;;;20.55;10.43;;;11.80;99.90;;;;;;5015155;28;20496;-60
2022/10/18 04:58:16;;;;;;;12.70;9.20;;;11.80;99.90;;;;;;5036397;28;20265;-61
2022/10/18 05:00:42;;;;;;;11.82;9.73;;;11.20;99.90;;;;;;5025854;28;20590;-61
2022/10/18 05:03:09;;;;;;;14.23;9.18;;;11.70;99.90;;;;;;5004486;28;20050;-61
2022/10/18 05:05:35;;;;;;;10.98;8.18;;;11.60;99.90;;;;;;5026324;28;20033;-60
2022/10/18 05:08:01;;;;;;;18.85;9.55;;;11.60;99.90;;;;;;4998442;28;20098;-63
2022/10/18 05:10:26;;;;;;;30.88;10.18;;;11.50;99.90;;;;;;5028942;28;20040;-62
2022/10/18 05:12:52;;;;;;;24.77;9.20;;;11.50;99.90;;;;;;5022181;28;20085;-63
2022/10/18 05:15:18;;;;;;;81.68;11.05;;;11.50;99.90;;;;;;5030590;28;20049;-62
2022/10/18 05:17:43;;;;;;;32.85;9.07;;;11.40;99.90;;;;;;5030124;28;20491;-63
2022/10/18 05:20:09;;;;;;;20.80;7.70;;;11.40;99.90;;;;;;5001389;28;20056;-63
2022/10/18 05:22:35;;;;;;;12.18;6.22;;;11.40;99.90;;;;;;4990141;28;20040;-64
2022/10/18 05:25:01;;;;;;;23.75;7.40;;;11.30;99.90;;;;;;5021468;28;20041;-62
2022/10/18 05:27:27;;;;;;;24.42;7.50;;;11.30;99.90;;;;;;5023814;28;20095;-61
2022/10/18 05:29:53;;;;;;;15.93;7.25;;;11.30;99.90;;;;;;5022628;28;20072;-62
2022/10/18 05:32:19;;;;;;;76.88;9.70;;;11.30;99.90;;;;;;5014360;28;20617;-61
2022/10/18 05:34:45;;;;;;;74.30;9.40;;;11.20;99.90;;;;;;5022789;28;20051;-62
2022/10/18 05:37:10;;;;;;;100.22;11.40;;;11.30;99.90;;;;;;5018213;28;20041;-60
2022/10/18 05:39:37;;;;;;;85.50;11.48;;;11.20;99.90;;;;;;5027203;28;20110;-60
2022/10/18 05:42:03;;;;;;;40.28;7.82;;;11.10;99.90;;;;;;5026454;28;20055;-61
2022/10/18 05:44:29;;;;;;;21.85;6.43;;;11.00;99.90;;;;;;5026110;28;20041;-61
2022/10/18 05:46:55;;;;;;;30.23;6.43;;;10.90;99.90;;;;;;5049308;28;20041;-62
2022/10/18 05:49:20;;;;;;;16.77;5.20;;;11.00;99.90;;;;;;5015132;28;20131;-63
2022/10/18 05:51:46;;;;;;;17.88;5.35;;;11.00;99.90;;;;;;5013690;28;20037;-63
2022/10/18 05:54:13;;;;;;;14.18;5.10;;;10.90;99.90;;;;;;4992482;28;20798;-61
2022/10/18 05:56:39;;;;;;;15.25;4.57;;;10.90;99.90;;;;;;5000945;28;20045;-61
2022/10/18 05:59:09;;;;;;;49.80;7.38;;;10.90;99.90;;;;;;5028871;28;20037;-63
2022/10/18 06:01:35;;;;;;;12.90;4.13;;;10.80;99.90;;;;;;5027224;28;20041;-64
2022/10/18 06:04:01;;;;;;;8.88;3.60;;;10.70;99.90;;;;;;5026639;28;20052;-64
2022/10/18 06:06:27;;;;;;;27.85;5.40;;;10.70;99.90;;;;;;5012889;28;20288;-64
2022/10/18 06:08:52;;;;;;;4.88;4.10;;;10.60;99.90;;;;;;5028937;28;20052;-62
2022/10/18 06:11:20;;;;;;;26.50;6.10;;;10.60;99.90;;;;;;5000302;28;20034;-63
2022/10/18 06:13:47;;;;;;;10.20;3.83;;;10.50;99.90;;;;;;5029653;28;20048;-64
2022/10/18 06:16:15;;;;;;;25.35;6.28;;;10.50;99.90;;;;;;5023796;28;20743;-62
2022/10/18 06:18:41;;;;;;;57.00;7.43;;;10.50;99.90;;;;;;5038670;28;20040;-62
2022/10/18 06:21:08;;;;;;;61.05;7.00;;;10.40;99.90;;;;;;5038171;28;20079;-63
2022/10/18 06:23:34;;;;;;;21.00;5.32;;;10.40;99.90;;;;;;5009025;28;20033;-62
2022/10/18 06:26:02;;;;;;;27.92;4.03;;;10.40;99.90;;;;;;5037064;28;20177;-61
2022/10/18 06:28:28;;;;;;;22.60;4.35;;;10.30;99.90;;;;;;5031950;28;20045;-60
2022/10/18 06:30:55;;;;;;;20.75;5.35;;;10.20;99.90;;;;;;5030341;28;20037;-63
2022/10/18 06:33:21;;;;;;;17.48;5.63;;;10.00;99.90;;;;;;5022652;28;20136;-64
2022/10/18 06:36:09;;;;;;;19.17;5.88;;;10.00;99.90;;;;;;5029320;28;20049;-61
2022/10/18 06:38:35;;;;;;;9.02;4.47;;;10.10;99.90;;;;;;5022556;28;20159;-63
2022/10/18 06:41:01;;;;;;;13.32;5.65;;;10.20;99.90;;;;;;5032916;28;20058;-62
2022/10/18 06:43:27;;;;;;;8.15;5.03;;;10.30;99.90;;;;;;5024597;28;20037;-61
2022/10/18 06:45:54;;;;;;;14.00;5.80;;;10.30;99.90;;;;;;5025339;28;20033;-61
2022/10/18 06:48:20;;;;;;;19.40;4.80;;;10.30;99.90;;;;;;5005703;28;20088;-65
2022/10/18 06:50:55;;;;;;;17.65;5.32;;;10.30;99.90;;;;;;5007422;28;20610;-64
2022/10/18 06:53:22;;;;;;;49.10;7.85;;;10.30;99.90;;;;;;5020125;28;20444;-65
2022/10/18 06:55:48;;;;;;;36.30;7.47;;;10.30;99.90;;;;;;4998301;28;20060;-64
2022/10/18 06:58:14;;;;;;;18.40;6.50;;;10.20;99.90;;;;;;5019345;28;20431;-62
2022/10/18 07:00:39;;;;;;;32.80;8.52;;;10.20;99.90;;;;;;5021573;28;21472;-64
2022/10/18 07:03:05;;;;;;;20.10;8.27;;;10.30;99.90;;;;;;5024054;28;20053;-62
2022/10/18 07:05:31;;;;;;;16.05;8.38;;;10.30;99.90;;;;;;5017418;28;20068;-65
2022/10/18 07:07:57;;;;;;;11.85;7.32;;;10.30;99.90;;;;;;5021338;28;20069;-64
2022/10/18 07:10:24;;;;;;;20.13;8.52;;;10.30;99.90;;;;;;5021469;28;20313;-63
2022/10/18 07:12:50;;;;;;;12.65;7.53;;;10.40;99.90;;;;;;5009481;28;20079;-66
2022/10/18 07:15:16;;;;;;;15.52;6.25;;;10.50;99.90;;;;;;5036940;28;20048;-64
2022/10/18 07:17:44;;;;;;;30.52;7.80;;;10.50;99.90;;;;;;4997440;28;20446;-65
2022/10/18 07:20:10;;;;;;;8.48;5.85;;;10.50;99.90;;;;;;5008981;28;20232;-65
2022/10/18 07:22:37;;;;;;;11.25;5.30;;;10.50;99.90;;;;;;5019190;28;20045;-65
2022/10/18 07:25:04;;;;;;;5.68;4.35;;;10.60;99.90;;;;;;5033639;28;20746;-63
2022/10/18 07:27:30;;;;;;;7.82;5.38;;;10.70;99.90;;;;;;5011440;28;21164;-63
2022/10/18 07:29:56;;;;;;;8.88;4.78;;;10.80;99.90;;;;;;5004395;28;20044;-63
2022/10/18 07:32:21;;;;;;;7.60;4.88;;;10.90;99.90;;;;;;5029898;28;20158;-64
2022/10/18 07:34:47;;;;;;;6.45;4.35;;;10.90;99.90;;;;;;5029264;28;20222;-64
2022/10/18 07:37:13;;;;;;;6.95;4.93;;;11.00;99.90;;;;;;4983014;28;20115;-63
2022/10/18 07:39:38;;;;;;;8.27;4.78;;;11.10;99.90;;;;;;5011403;28;20044;-65
2022/10/18 07:42:04;;;;;;;10.23;5.43;;;11.20;99.90;;;;;;5029844;28;20744;-66
2022/10/18 07:44:30;;;;;;;7.95;5.28;;;11.30;99.90;;;;;;5033742;28;20044;-63
2022/10/18 07:46:55;;;;;;;12.13;5.47;;;11.40;99.90;;;;;;4988855;28;20040;-63
2022/10/18 07:49:21;;;;;;;8.30;4.85;;;11.50;99.90;;;;;;5008703;28;20053;-63
2022/10/18 07:51:47;;;;;;;10.50;4.50;;;11.70;99.90;;;;;;5011323;28;20221;-63
2022/10/18 07:54:13;;;;;;;9.98;4.57;;;11.70;99.90;;;;;;5013683;28;21099;-66
2022/10/18 07:56:38;;;;;;;8.65;4.50;;;11.80;99.90;;;;;;5028878;28;20093;-64
2022/10/18 07:59:04;;;;;;;6.70;4.13;;;11.90;99.90;;;;;;5009275;28;20041;-64
2022/10/18 08:01:30;;;;;;;8.20;4.57;;;12.00;99.90;;;;;;5018358;28;20458;-62
2022/10/18 08:03:55;;;;;;;10.15;4.68;;;12.10;99.90;;;;;;5027208;28;20489;-65
2022/10/18 08:06:22;;;;;;;12.13;4.97;;;12.10;99.90;;;;;;5023700;28;20040;-65
2022/10/18 08:08:48;;;;;;;10.63;4.20;;;12.30;99.90;;;;;;4995485;28;20137;-65
2022/10/18 08:11:17;;;;;;;9.88;4.60;;;12.30;99.90;;;;;;5037504;28;20033;-66
2022/10/18 08:13:43;;;;;;;11.02;4.63;;;12.40;99.90;;;;;;4991767;28;20037;-63
2022/10/18 08:16:26;;;;;;;15.15;4.82;;;12.50;99.90;;;;;;5026265;28;20044;-63
2022/10/18 08:18:52;;;;;;;9.10;3.90;;;12.50;99.90;;;;;;5030980;28;20491;-65
2022/10/18 08:21:19;;;;;;;9.25;4.35;;;12.70;99.90;;;;;;5038695;28;20050;-66
2022/10/18 08:23:46;;;;;;;8.45;3.75;;;12.80;99.90;;;;;;5029558;28;20100;-65
2022/10/18 08:26:19;;;;;;;8.05;4.57;;;12.90;99.90;;;;;;5027221;28;20100;-66
2022/10/18 08:28:45;;;;;;;8.00;3.35;;;13.00;99.90;;;;;;5003284;28;20395;-66
2022/10/18 08:31:13;;;;;;;11.57;3.83;;;13.10;99.90;;;;;;4994436;28;20048;-64
2022/10/18 08:33:39;;;;;;;13.45;3.22;;;13.20;99.90;;;;;;5024324;23;20445;-62
2022/10/18 08:36:07;;;;;;;15.02;3.13;;;13.30;99.90;;;;;;5013187;28;20052;-61
2022/10/18 08:38:35;;;;;;;14.02;3.10;;;13.40;99.90;;;;;;5039814;28;20041;-62
2022/10/18 08:41:19;;;;;;;16.48;4.00;;;13.50;99.90;;;;;;4997807;28;20146;-62
2022/10/18 08:44:06;;;;;;;15.90;3.40;;;13.50;99.90;;;;;;5027906;28;20542;-59
2022/10/18 08:46:35;;;;;;;12.00;3.33;;;13.60;99.90;;;;;;5028410;28;20037;-63
2022/10/18 08:49:03;;;;;;;17.00;3.13;;;13.80;99.90;;;;;;4995102;28;20037;-62
2022/10/18 08:51:32;;;;;;;12.10;3.15;;;13.90;99.90;;;;;;5016916;28;20048;-62
2022/10/18 08:54:12;;;;;;;13.32;3.28;;;13.90;99.90;;;;;;5018368;28;20045;-61
2022/10/18 08:56:40;;;;;;;12.70;3.42;;;14.00;99.90;;;;;;4982479;28;20045;-63
2022/10/18 08:59:11;;;;;;;9.52;2.90;;;14.10;99.90;;;;;;5018364;28;20373;-62
2022/10/18 09:02:04;;;;;;;17.58;3.08;;;14.20;99.90;;;;;;5010716;28;20241;-61
2022/10/18 09:04:51;;;;;;;10.35;2.72;;;14.40;99.90;;;;;;5006354;28;20048;-62
2022/10/18 09:07:37;;;;;;;14.93;2.60;;;14.50;99.90;;;;;;5005011;28;20029;-62
2022/10/18 09:10:06;;;;;;;18.58;3.42;;;14.70;99.90;;;;;;5027323;28;20136;-61
2022/10/18 09:12:52;;;;;;;14.77;2.90;;;14.90;99.90;;;;;;5001737;28;20041;-60
2022/10/18 09:15:42;;;;;;;20.00;3.22;;;15.00;99.90;;;;;;5009205;28;20566;-63
2022/10/18 09:18:22;;;;;;;16.20;2.78;;;15.10;99.90;;;;;;5003879;28;20048;-61
2022/10/18 09:20:52;;;;;;;14.10;2.53;;;15.10;99.90;;;;;;5006345;28;20180;-61
2022/10/18 09:23:21;;;;;;;46.67;4.22;;;15.30;99.90;;;;;;5018658;28;20057;-61
2022/10/18 09:26:20;;;;;;;18.80;3.15;;;15.40;99.90;;;;;;5006638;28;20496;-61
2022/10/18 09:28:58;;;;;;;13.77;2.63;;;15.40;99.90;;;;;;5004239;28;20075;-61
2022/10/18 09:31:57;;;;;;;13.68;2.42;;;15.50;99.90;;;;;;5001745;28;20069;-62
2022/10/18 09:34:45;;;;;;;11.18;2.10;;;15.50;99.90;;;;;;4988260;28;20527;-63
2022/10/18 09:37:17;;;;;;;14.45;2.63;;;15.70;99.90;;;;;;4987009;28;20064;-62
2022/10/18 09:39:46;;;;;;;16.20;2.90;;;15.70;99.90;;;;;;5026013;28;20033;-62
2022/10/18 09:42:34;;;;;;;17.75;2.50;;;15.70;99.90;;;;;;5013039;28;20163;-62
2022/10/18 09:45:17;;;;;;;11.23;2.58;;;16.00;99.90;;;;;;5025158;28;20068;-63
2022/10/18 09:48:10;;;;;;;15.63;3.15;;;15.80;99.90;;;;;;4996755;28;20095;-66
2022/10/18 09:50:41;;;;;;;9.90;2.38;;;15.90;99.90;;;;;;5016727;28;20412;-61
2022/10/18 09:53:19;;;;;;;13.52;3.00;;;16.00;99.90;;;;;;5022092;28;20572;-61
2022/10/18 09:56:04;;;;;;;13.15;2.50;;;16.10;99.90;;;;;;5003233;28;20377;-62
2022/10/18 09:58:41;;;;;;;10.93;2.55;;;16.20;99.90;;;;;;5005457;28;20059;-61
2022/10/18 10:01:08;;;;;;;13.43;2.20;;;16.30;99.90;;;;;;5026301;28;20033;-61
2022/10/18 10:03:34;;;;;;;16.25;2.80;;;16.40;99.90;;;;;;5004084;28;20041;-62
2022/10/18 10:06:12;;;;;;;14.40;2.13;;;16.30;99.90;;;;;;5021504;28;20510;-62
2022/10/18 10:08:48;;;;;;;13.55;3.95;;;16.10;99.90;;;;;;5007062;28;20128;-63
2022/10/18 10:11:35;;;;;;;13.27;2.63;;;16.20;99.90;;;;;;5005512;28;20054;-62
2022/10/18 10:14:16;;;;;;;12.50;1.75;;;16.30;99.90;;;;;;5020438;28;20458;-62
2022/10/18 10:16:54;;;;;;;13.27;2.85;;;16.30;99.90;;;;;;4994965;28;20057;-63
2022/10/18 10:19:25;;;;;;;12.73;2.38;;;16.40;99.90;;;;;;5036776;28;20168;-63
2022/10/18 10:21:55;;;;;;;9.80;2.22;;;16.70;99.90;;;;;;5028433;28;20508;-63
2022/10/18 10:24:46;;;;;;;9.52;1.95;;;16.70;99.90;;;;;;5008044;28;20044;-63
2022/10/18 10:27:42;;;;;;;14.00;2.67;;;16.70;99.90;;;;;;5031428;28;20052;-63
2022/10/18 10:30:33;;;;;;;14.35;2.08;;;17.00;99.90;;;;;;5004142;28;20179;-63
2022/10/18 10:32:59;;;;;;;14.73;2.20;;;16.90;99.90;;;;;;4994373;28;20055;-63
2022/10/18 10:35:37;;;;;;;9.77;2.00;;;16.70;99.90;;;;;;5009312;28;20047;-63
2022/10/18 10:38:04;;;;;;;13.48;2.63;;;16.40;99.90;;;;;;5032723;28;20036;-63
2022/10/18 10:40:41;;;;;;;14.35;2.30;;;16.10;99.90;;;;;;5025330;28;20390;-64
2022/10/18 10:43:18;;;;;;;11.52;2.67;;;16.00;99.90;;;;;;5028206;28;20131;-63
2022/10/18 10:46:15;;;;;;;14.48;3.78;;;15.80;99.90;;;;;;5031257;28;20123;-61
2022/10/18 10:48:46;;;;;;;10.13;2.00;;;15.80;99.90;;;;;;5020328;28;20144;-63
2022/10/18 10:59:13;;;;;;;9.65;2.05;;;15.80;99.90;;;;;;5972609;22;20060;-78
2022/10/18 11:01:42;;;;;;;7.45;1.77;;;15.70;99.90;;;;;;4977057;28;20212;-78
2022/10/18 11:04:29;;;;;;;12.02;2.17;;;16.20;99.90;;;;;;4984367;28;20060;-77
2022/10/18 11:07:13;;;;;;;;;;;16.00;99.90;;;;;;4996955;28;20057;-80
2022/10/18 11:10:17;;;;;;;9.50;1.63;;;16.70;99.90;;;;;;4979904;28;19929;-76
2022/10/18 11:12:48;;;;;;;11.18;2.75;;;16.80;99.90;;;;;;5004241;28;20045;-78
2022/10/18 11:15:31;;;;;;;16.25;2.38;;;16.80;99.90;;;;;;4978558;28;20088;-76
2022/10/18 11:18:16;;;;;;;9.40;2.30;;;16.90;99.90;;;;;;5000128;28;20054;-76
2022/10/18 11:21:16;;;;;;;12.48;2.10;;;16.80;99.90;;;;;;5025222;23;20054;-80
2022/10/18 11:23:44;;;;;;;11.82;2.03;;;16.40;99.90;;;;;;4972816;28;20071;-83
2022/10/18 11:26:18;;;;;;;11.68;1.92;;;16.30;99.90;;;;;;4975566;28;20045;-82
2022/10/18 11:29:22;;;;;;;15.40;2.80;;;16.30;99.90;;;;;;5009005;28;20041;-82
2022/10/18 11:32:09;;;;;;;12.55;2.83;;;16.50;99.90;;;;;;4959762;28;20557;-82
2022/10/18 11:34:44;;;;;;;14.85;2.53;;;16.70;99.90;;;;;;4988949;28;20042;-81
2022/10/18 11:37:34;;;;;;;11.18;1.90;;;16.60;99.90;;;;;;4993831;28;20036;-84
2022/10/18 11:40:18;;;;;;;12.95;2.95;;;16.70;99.90;;;;;;4997429;28;20594;-82
2022/10/18 11:43:03;;;;;;;12.88;2.28;;;16.50;99.90;;;;;;4999646;28;20485;-82
2022/10/18 11:45:53;;;;;;;12.02;2.50;;;16.30;99.90;;;;;;4989648;28;20283;-81
2022/10/18 11:48:42;;;;;;;8.20;2.22;;;16.30;99.90;;;;;;4991125;28;20290;-80
2022/10/18 11:51:24;;;;;;;15.18;2.05;;;16.10;99.90;;;;;;4987596;28;20081;-79
2022/10/18 11:53:56;;;;;;;7.72;1.67;;;16.00;99.90;;;;;;4988149;28;20043;-82
2022/10/18 11:56:40;;;;;;;9.82;2.03;;;15.90;99.90;;;;;;5000230;28;20050;-80
2022/10/18 11:59:27;;;;;;;10.20;2.08;;;15.90;99.90;;;;;;5002946;28;20038;-77
2022/10/18 12:02:29;;;;;;;12.07;2.58;;;15.80;99.90;;;;;;5002309;28;20405;-79
2022/10/18 12:04:59;;;;;;;10.05;1.77;;;15.60;99.90;;;;;;4974303;28;20516;-80
2022/10/18 12:07:37;;;;;;;12.02;2.47;;;15.50;99.90;;;;;;4994234;28;20515;-80
2022/10/18 12:10:07;;;;;;;10.15;2.42;;;15.60;99.90;;;;;;4999152;28;20481;-79
2022/10/18 12:12:47;;;;;;;11.70;2.03;;;15.90;99.90;;;;;;4990017;28;20037;-79
2022/10/18 12:15:18;;;;;;;12.95;2.50;;;16.20;99.90;;;;;;4991946;28;20609;-77
2022/10/18 12:17:50;;;;;;;11.85;2.58;;;16.50;99.90;;;;;;4984635;28;20073;-79
2022/10/18 12:20:46;;;;;;;10.93;2.20;;;16.60;99.90;;;;;;4973862;28;20038;-79
2022/10/18 12:23:33;;;;;;;9.73;1.83;;;16.50;99.90;;;;;;4979135;28;20564;-80
2022/10/18 12:26:05;;;;;;;10.60;2.08;;;16.50;99.90;;;;;;4975095;28;20283;-80
2022/10/18 12:29:08;;;;;;;10.80;2.03;;;16.60;99.90;;;;;;4991041;28;20042;-80
2022/10/18 12:31:38;;;;;;;13.63;2.15;;;16.60;99.90;;;;;;4993136;28;20053;-80
2022/10/18 12:34:22;;;;;;;13.05;2.38;;;16.50;99.90;;;;;;4974922;28;20053;-80
2022/10/18 12:36:54;;;;;;;13.10;2.72;;;16.70;99.90;;;;;;5001400;28;20352;-80
2022/10/18 12:39:26;;;;;;;8.98;2.00;;;16.60;99.90;;;;;;5003623;28;20045;-80
2022/10/18 12:41:54;;;;;;;12.23;2.20;;;16.40;99.90;;;;;;4992799;28;20067;-79
2022/10/18 12:44:25;;;;;;;11.75;2.13;;;16.40;99.90;;;;;;4994511;28;20092;-78
2022/10/18 12:46:56;;;;;;;9.85;2.03;;;16.50;99.90;;;;;;4998128;28;20157;-80
2022/10/18 12:49:31;;;;;;;12.95;2.10;;;16.70;99.90;;;;;;5004243;28;20049;-78
2022/10/18 12:52:17;;;;;;;8.60;2.35;;;16.90;99.90;;;;;;4997577;28;20053;-79
2022/10/18 12:55:04;;;;;;;11.82;2.00;;;17.10;99.90;;;;;;5000002;28;20103;-80
2022/10/18 12:57:52;;;;;;;11.73;2.53;;;17.10;99.90;;;;;;4987836;28;20075;-77
2022/10/18 13:00:41;;;;;;;11.98;3.15;;;17.20;99.90;;;;;;4978556;28;20041;-79
2022/10/18 13:03:12;;;;;;;10.02;3.10;;;17.20;99.90;;;;;;4990906;28;20054;-78
2022/10/18 13:05:47;;;;;;;6.57;1.67;;;17.50;99.90;;;;;;5009000;28;20040;-78
2022/10/18 13:08:36;;;;;;;8.75;2.25;;;17.50;99.90;;;;;;4994317;28;20045;-78